Abiquiu, New Mexico
Current Conditions -  °F | °C
As of 5:15 PM on Sunday 25 Jan 2015 (Local Time) from KLAM Reporting Station
Clear Clear  
Wind Chill: 46°   Ceiling: Unl
Heat Index: 46°   Visibility: 10mi
Dew Point: 23°   Wind: 3mph
Humidity: 40%   Direction: 210°SSW
Pressure: 30.28"   Gusts: NA
Location:  36.21°N, 106.32°W
Report Text: KLAM 260015Z AUTO 21003KT 10SM CLR 08/M05 A3028 RMK AO2 T00781052
Loading
Personal Weather Stations






























Interactive Weather Map New forecast layout! Learn more

10-Day Weather Forecast

Advertisements
Track Severe Weather on mobile